Time;durP1;ratioP1;P1;durP2;ratioP2;P2;SDS_P1;SDS_P2;PMS_P1;PMS_P2;Temp;Humidity;BMP_temperature;BMP_pressure;BME280_temperature;BME280_humidity;BME280_pressure;Samples;Min_cycle;Max_cycle;Signal;HPM_P1;HPM_P2
2023/03/21 00:00:06;;;;;;;4.33;3.80;;;9.90;99.90;;;;;;5056064;28;20216;-87
2023/03/21 00:02:32;;;;;;;4.10;3.20;;;9.90;99.90;;;;;;5053591;28;20198;-86
2023/03/21 00:04:58;;;;;;;8.53;5.10;;;9.90;99.90;;;;;;5055004;28;20683;-85
2023/03/21 00:07:23;;;;;;;3.53;3.33;;;9.90;99.90;;;;;;5050501;28;20220;-86
2023/03/21 00:09:49;;;;;;;6.70;4.53;;;9.90;99.90;;;;;;5035591;28;20232;-86
2023/03/21 00:12:15;;;;;;;7.27;4.53;;;9.80;99.90;;;;;;5038630;28;20214;-86
2023/03/21 00:14:42;;;;;;;8.63;4.40;;;9.90;99.90;;;;;;5038421;28;20276;-86
2023/03/21 00:17:09;;;;;;;15.23;7.23;;;9.80;99.90;;;;;;5055337;28;20201;-88
2023/03/21 00:19:37;;;;;;;8.30;4.50;;;9.90;99.90;;;;;;5052676;28;20225;-87
2023/03/21 00:22:04;;;;;;;3.93;2.77;;;9.80;99.90;;;;;;5053118;28;20220;-86
2023/03/21 00:24:29;;;;;;;3.83;2.63;;;9.90;99.90;;;;;;5055253;28;20713;-88
2023/03/21 00:26:55;;;;;;;3.80;1.90;;;9.80;99.90;;;;;;5045665;28;20217;-85
2023/03/21 00:29:21;;;;;;;7.07;5.50;;;9.80;99.90;;;;;;5046082;28;20221;-87
2023/03/21 00:31:46;;;;;;;4.40;2.27;;;9.80;99.90;;;;;;5054818;28;20262;-88
2023/03/21 00:34:12;;;;;;;8.87;2.73;;;9.80;99.90;;;;;;5055596;28;20222;-87
2023/03/21 00:36:38;;;;;;;5.37;4.87;;;9.80;99.90;;;;;;5054259;28;20225;-87
2023/03/21 00:39:05;;;;;;;11.23;4.10;;;9.80;99.90;;;;;;5053899;28;20221;-87
2023/03/21 00:41:31;;;;;;;15.93;3.23;;;9.90;99.90;;;;;;5046016;28;20193;-87
2023/03/21 00:43:56;;;;;;;7.70;4.90;;;9.80;99.90;;;;;;5055426;28;20553;-86
2023/03/21 00:46:22;;;;;;;4.57;3.60;;;9.80;99.90;;;;;;5029239;28;21072;-86
2023/03/21 00:48:48;;;;;;;5.60;4.23;;;9.80;99.90;;;;;;5054946;28;20691;-86
2023/03/21 00:51:25;;;;;;;7.30;3.67;;;9.80;99.90;;;;;;5052873;28;20232;-87
2023/03/21 00:53:55;;;;;;;6.80;4.53;;;9.80;99.90;;;;;;5052985;28;21073;-86
2023/03/21 00:56:21;;;;;;;7.67;5.80;;;9.80;99.90;;;;;;5058362;28;20269;-85
2023/03/21 00:58:47;;;;;;;23.40;4.30;;;9.80;99.90;;;;;;5057568;28;20222;-86
2023/03/21 01:01:13;;;;;;;10.00;4.07;;;9.80;99.90;;;;;;5056956;28;20262;-86
2023/03/21 01:03:49;;;;;;;5.60;2.50;;;9.80;99.90;;;;;;5056804;28;20693;-85
2023/03/21 01:06:18;;;;;;;21.30;6.13;;;9.80;99.90;;;;;;5055701;28;20281;-86
2023/03/21 01:08:45;;;;;;;7.33;3.20;;;9.80;99.90;;;;;;5056438;28;20208;-86
2023/03/21 01:11:15;;;;;;;6.97;4.77;;;9.80;99.90;;;;;;5049246;28;20192;-86
2023/03/21 01:13:41;;;;;;;8.73;4.63;;;9.80;99.90;;;;;;5057307;28;20217;-86
2023/03/21 01:16:08;;;;;;;18.93;6.00;;;9.80;99.90;;;;;;5038966;28;20213;-87
2023/03/21 01:18:35;;;;;;;16.17;6.30;;;9.80;99.90;;;;;;5047062;28;20241;-86
2023/03/21 01:21:04;;;;;;;12.23;4.73;;;9.80;99.90;;;;;;5057937;28;20214;-86
2023/03/21 01:23:30;;;;;;;11.37;5.90;;;9.80;99.90;;;;;;5073163;28;20185;-86
2023/03/21 01:25:56;;;;;;;8.03;5.07;;;9.80;99.90;;;;;;5047493;28;21213;-85
2023/03/21 01:28:24;;;;;;;13.73;7.00;;;9.80;99.90;;;;;;5037980;28;20221;-86
2023/03/21 01:30:51;;;;;;;7.37;2.87;;;9.80;99.90;;;;;;5055706;28;20217;-86
2023/03/21 01:33:18;;;;;;;12.93;4.80;;;9.80;99.90;;;;;;5041015;28;20806;-86
2023/03/21 01:35:44;;;;;;;6.30;4.50;;;9.80;99.90;;;;;;5058438;28;20225;-86
2023/03/21 01:38:10;;;;;;;6.83;3.97;;;9.80;99.90;;;;;;5056029;28;20201;-85
2023/03/21 01:40:36;;;;;;;10.30;7.13;;;9.80;99.90;;;;;;5055920;28;20611;-86
2023/03/21 01:43:03;;;;;;;9.97;6.07;;;9.80;99.90;;;;;;5059479;28;20237;-87
2023/03/21 01:46:06;;;;;;;6.53;4.57;;;9.80;99.90;;;;;;5055574;28;20694;-86
2023/03/21 01:48:33;;;;;;;11.00;5.97;;;9.80;99.90;;;;;;5057848;28;20224;-86
2023/03/21 01:50:59;;;;;;;15.07;7.03;;;9.80;99.90;;;;;;5053418;28;20217;-88
2023/03/21 01:53:28;;;;;;;16.20;4.60;;;9.80;99.90;;;;;;5055194;28;20190;-88
2023/03/21 01:56:03;;;;;;;7.67;5.40;;;9.80;99.90;;;;;;5062293;28;20225;-86
2023/03/21 01:58:29;;;;;;;7.50;5.67;;;9.80;99.90;;;;;;5058742;28;20225;-88
2023/03/21 02:00:55;;;;;;;15.00;5.87;;;9.80;99.90;;;;;;5055386;28;20232;-86
2023/03/21 02:03:22;;;;;;;7.60;4.33;;;9.80;99.90;;;;;;5052992;28;20221;-87
2023/03/21 02:06:24;;;;;;;10.27;6.10;;;9.80;99.90;;;;;;5037359;28;20205;-88
2023/03/21 02:08:51;;;;;;;6.27;5.53;;;9.80;99.90;;;;;;5016838;28;20231;-87
2023/03/21 02:11:18;;;;;;;10.73;8.23;;;9.80;99.90;;;;;;5056227;28;20712;-86
2023/03/21 02:13:43;;;;;;;7.73;5.40;;;9.80;99.90;;;;;;5056193;28;20209;-86
2023/03/21 02:16:48;;;;;;;7.60;5.90;;;9.80;99.90;;;;;;5019659;28;20283;-86
2023/03/21 02:19:42;;;;;;;10.53;6.47;;;9.80;99.90;;;;;;5056175;28;20229;-85
2023/03/21 02:22:26;;;;;;;17.33;7.10;;;9.80;99.90;;;;;;5053913;28;20214;-86
2023/03/21 02:25:29;;;;;;;12.93;7.20;;;9.80;99.90;;;;;;5062091;28;20228;-86
2023/03/21 02:28:24;;;;;;;10.07;5.47;;;9.80;99.90;;;;;;5058799;28;20228;-85
2023/03/21 02:31:08;;;;;;;13.47;7.23;;;9.80;99.90;;;;;;5055151;28;20276;-86
2023/03/21 02:33:53;;;;;;;13.27;6.20;;;9.80;99.90;;;;;;5056255;28;20239;-86
2023/03/21 02:36:44;;;;;;;7.37;4.63;;;9.80;99.90;;;;;;5056186;28;20214;-86
2023/03/21 02:39:30;;;;;;;6.47;5.87;;;9.80;99.90;;;;;;5057254;28;20249;-86
2023/03/21 02:42:14;;;;;;;14.37;6.37;;;9.80;99.90;;;;;;5061973;28;20759;-86
2023/03/21 02:44:55;;;;;;;9.83;6.57;;;9.80;99.90;;;;;;5055735;28;20537;-87
2023/03/21 02:47:29;;;;;;;8.80;5.93;;;9.80;99.90;;;;;;5056181;28;20647;-87
2023/03/21 02:50:14;;;;;;;15.60;6.50;;;9.80;99.90;;;;;;5054955;28;20225;-87
2023/03/21 02:52:43;;;;;;;12.93;6.37;;;9.80;99.90;;;;;;5054670;28;20221;-87
2023/03/21 02:55:17;;;;;;;13.40;6.93;;;9.80;99.90;;;;;;5052306;28;20221;-88
2023/03/21 02:57:45;;;;;;;13.83;4.97;;;9.80;99.90;;;;;;5056037;28;20734;-86
2023/03/21 03:00:17;;;;;;;20.30;8.90;;;9.80;99.90;;;;;;5054906;28;20218;-86
2023/03/21 03:02:43;;;;;;;14.30;6.57;;;9.80;99.90;;;;;;5053804;28;20181;-86
2023/03/21 03:05:25;;;;;;;10.07;8.67;;;9.80;99.90;;;;;;5055162;28;20248;-87
2023/03/21 03:08:18;;;;;;;10.00;5.43;;;9.70;99.90;;;;;;5079108;28;20217;-87
2023/03/21 03:11:04;;;;;;;11.73;6.60;;;9.70;99.90;;;;;;5054446;28;20218;-88
2023/03/21 03:13:45;;;;;;;15.77;5.03;;;9.70;99.90;;;;;;5056095;28;20221;-88
2023/03/21 03:16:36;;;;;;;12.20;4.77;;;9.80;99.90;;;;;;5061116;28;20330;-88
2023/03/21 03:19:07;;;;;;;6.07;5.33;;;9.80;99.90;;;;;;5061657;28;20221;-88
2023/03/21 03:21:57;;;;;;;11.87;6.07;;;9.70;99.90;;;;;;5055979;28;20224;-88
2023/03/21 03:24:52;;;;;;;8.37;6.30;;;9.80;99.90;;;;;;5056036;28;20780;-87
2023/03/21 03:27:26;;;;;;;5.97;5.07;;;9.70;99.90;;;;;;5051158;28;20217;-88
2023/03/21 03:29:53;;;;;;;13.83;6.10;;;9.70;99.90;;;;;;5053774;28;20229;-88
2023/03/21 03:32:29;;;;;;;7.70;4.53;;;9.70;99.90;;;;;;5045316;28;20738;-87
2023/03/21 03:34:56;;;;;;;6.73;4.83;;;9.70;99.90;;;;;;5053228;28;20312;-86
2023/03/21 03:37:28;;;;;;;14.60;4.67;;;9.70;99.90;;;;;;5056058;28;20213;-86
2023/03/21 03:40:31;;;;;;;9.37;5.53;;;9.70;99.90;;;;;;5050736;28;20229;-87
2023/03/21 03:43:03;;;;;;;13.00;5.47;;;9.70;99.90;;;;;;5051645;28;20290;-87
2023/03/21 03:45:39;;;;;;;7.27;4.80;;;9.80;99.90;;;;;;5053856;28;20734;-86
2023/03/21 03:48:11;;;;;;;8.70;5.57;;;9.80;99.90;;;;;;5054042;28;20222;-88
2023/03/21 03:51:02;;;;;;;9.33;4.70;;;9.80;99.90;;;;;;5054924;28;20332;-88
2023/03/21 03:53:35;;;;;;;9.10;4.20;;;9.70;99.90;;;;;;5055791;28;20655;-87
2023/03/21 03:56:03;;;;;;;9.10;5.37;;;9.70;99.90;;;;;;5054006;28;20733;-87
2023/03/21 03:58:30;;;;;;;9.43;3.93;;;9.80;99.90;;;;;;5054988;28;20595;-88
2023/03/21 04:00:56;;;;;;;12.40;5.30;;;9.80;99.90;;;;;;5062448;28;20247;-88
2023/03/21 04:03:22;;;;;;;9.67;4.47;;;9.80;99.90;;;;;;5054183;28;20237;-88
2023/03/21 04:05:49;;;;;;;14.20;7.23;;;9.80;99.90;;;;;;5050576;28;20174;-87
2023/03/21 04:08:16;;;;;;;11.80;6.83;;;9.80;99.90;;;;;;5060085;28;20196;-87
2023/03/21 04:10:42;;;;;;;6.97;4.50;;;9.80;99.90;;;;;;5054450;28;20312;-87
2023/03/21 04:13:08;;;;;;;8.07;6.27;;;9.80;99.90;;;;;;5053556;28;20232;-87
2023/03/21 04:15:34;;;;;;;17.07;6.87;;;9.80;99.90;;;;;;5038346;28;20217;-88
2023/03/21 04:18:00;;;;;;;10.13;6.10;;;9.80;99.90;;;;;;5037343;28;20213;-86
2023/03/21 04:20:25;;;;;;;4.67;3.83;;;9.80;99.90;;;;;;5038127;28;20201;-86
2023/03/21 04:22:53;;;;;;;16.03;5.63;;;9.80;99.90;;;;;;5051647;28;20694;-88
2023/03/21 04:25:19;;;;;;;15.43;7.53;;;9.80;99.90;;;;;;5034948;28;20263;-87
2023/03/21 04:27:45;;;;;;;12.80;4.47;;;9.80;99.90;;;;;;5051685;28;20224;-86
2023/03/21 04:30:11;;;;;;;14.20;7.17;;;9.80;99.90;;;;;;5045039;28;20742;-88
2023/03/21 04:32:41;;;;;;;16.47;6.40;;;9.80;99.90;;;;;;5058297;28;20193;-88
2023/03/21 04:35:08;;;;;;;10.83;5.13;;;9.80;99.90;;;;;;5056022;28;20185;-87
2023/03/21 04:37:34;;;;;;;17.10;7.40;;;9.80;99.90;;;;;;5039753;28;20224;-86
2023/03/21 04:40:05;;;;;;;10.30;6.10;;;9.80;99.90;;;;;;5042311;28;20228;-87
2023/03/21 04:42:32;;;;;;;18.30;4.47;;;9.80;99.90;;;;;;5056254;28;20229;-86
2023/03/21 04:44:58;;;;;;;13.00;6.13;;;9.80;99.90;;;;;;5056627;28;20251;-86
2023/03/21 04:47:24;;;;;;;28.23;6.27;;;9.80;99.90;;;;;;5058615;28;20287;-88
2023/03/21 04:49:50;;;;;;;11.60;4.73;;;9.80;99.90;;;;;;5039601;28;20325;-86
2023/03/21 04:52:16;;;;;;;11.20;5.50;;;9.80;99.90;;;;;;5056689;28;20221;-88
2023/03/21 04:54:42;;;;;;;7.67;4.00;;;9.80;99.90;;;;;;5057642;28;20218;-86
2023/03/21 04:57:08;;;;;;;10.60;6.30;;;9.90;99.90;;;;;;5055448;28;20683;-86
2023/03/21 04:59:34;;;;;;;11.03;4.60;;;9.90;99.90;;;;;;5049655;28;20186;-87
2023/03/21 05:02:00;;;;;;;5.83;5.20;;;9.90;99.90;;;;;;5066092;28;20182;-86
2023/03/21 05:04:26;;;;;;;4.60;4.20;;;9.90;99.90;;;;;;5059000;28;20218;-85
2023/03/21 05:06:56;;;;;;;11.33;4.73;;;9.90;99.90;;;;;;5058517;28;20320;-87
2023/03/21 05:09:22;;;;;;;6.67;4.77;;;9.90;99.90;;;;;;5057292;28;20229;-85
2023/03/21 05:11:49;;;;;;;10.87;5.10;;;9.90;99.90;;;;;;5057367;28;20189;-88
2023/03/21 05:14:18;;;;;;;4.87;4.00;;;9.90;99.90;;;;;;5059824;28;20193;-87
2023/03/21 05:16:51;;;;;;;3.73;2.60;;;9.90;99.90;;;;;;5058650;28;20238;-86
2023/03/21 05:19:19;;;;;;;12.63;3.53;;;9.90;99.90;;;;;;5058152;28;20233;-86
2023/03/21 05:21:45;;;;;;;4.27;3.03;;;9.90;99.90;;;;;;5055747;28;20225;-87
2023/03/21 05:24:17;;;;;;;7.67;3.53;;;9.90;99.90;;;;;;5057452;28;20217;-87
2023/03/21 05:26:49;;;;;;;6.57;3.40;;;9.90;99.90;;;;;;5058884;28;20186;-88
2023/03/21 05:29:16;;;;;;;8.50;3.73;;;9.90;99.90;;;;;;5048527;28;20214;-87
2023/03/21 05:31:43;;;;;;;4.23;3.03;;;10.00;99.90;;;;;;5058129;28;20264;-87
2023/03/21 05:34:10;;;;;;;3.27;2.53;;;10.00;99.90;;;;;;5057041;28;20220;-87
2023/03/21 05:36:36;;;;;;;4.10;3.53;;;9.90;99.90;;;;;;5057477;28;20213;-87
2023/03/21 05:39:02;;;;;;;7.97;4.50;;;10.00;99.90;;;;;;5056445;28;20227;-86
2023/03/21 05:41:28;;;;;;;5.43;4.93;;;9.90;99.90;;;;;;5057135;28;20194;-87
2023/03/21 05:43:54;;;;;;;6.60;5.00;;;10.00;99.90;;;;;;5038858;28;20250;-87
2023/03/21 05:46:19;;;;;;;3.77;3.40;;;10.00;99.90;;;;;;5037207;28;20340;-86
2023/03/21 05:48:45;;;;;;;4.77;3.73;;;10.00;99.90;;;;;;5037986;28;20230;-86
2023/03/21 05:51:11;;;;;;;4.30;3.90;;;10.00;99.90;;;;;;5037975;28;20680;-85
2023/03/21 05:53:37;;;;;;;4.47;3.47;;;10.00;99.90;;;;;;5036361;28;20221;-87
2023/03/21 05:56:03;;;;;;;3.00;2.77;;;10.00;99.90;;;;;;5037494;28;20201;-88
2023/03/21 05:58:29;;;;;;;5.87;4.80;;;10.00;99.90;;;;;;5038059;28;20214;-86
2023/03/21 06:00:55;;;;;;;4.80;3.60;;;10.00;99.90;;;;;;5051843;28;20222;-88
2023/03/21 06:03:20;;;;;;;2.03;1.90;;;10.00;99.90;;;;;;5036783;28;20313;-86
2023/03/21 06:05:46;;;;;;;5.37;4.07;;;10.00;99.90;;;;;;5036237;28;20217;-88
2023/03/21 06:08:12;;;;;;;7.03;4.13;;;10.00;99.90;;;;;;5036036;28;20190;-89
2023/03/21 06:10:38;;;;;;;4.23;2.83;;;10.00;99.90;;;;;;5028684;28;20236;-89
2023/03/21 06:13:04;;;;;;;9.43;2.47;;;10.00;99.90;;;;;;5005813;28;20666;-89
2023/03/21 06:15:29;;;;;;;4.43;2.83;;;10.00;99.90;;;;;;5019483;28;20300;-90
2023/03/21 06:17:55;;;;;;;3.70;2.47;;;10.00;99.90;;;;;;5035552;28;20222;-91
2023/03/21 06:20:21;;;;;;;2.80;2.07;;;10.00;99.90;;;;;;5019941;28;20734;-88
2023/03/21 06:22:47;;;;;;;5.67;2.27;;;10.00;99.90;;;;;;5019809;28;20708;-88
2023/03/21 06:25:13;;;;;;;3.83;3.40;;;10.00;99.90;;;;;;5035642;28;20230;-89
2023/03/21 06:27:39;;;;;;;3.07;1.90;;;10.10;99.90;;;;;;5026994;28;20893;-90
2023/03/21 06:30:05;;;;;;;3.23;2.53;;;10.10;99.90;;;;;;5024774;28;20743;-89
2023/03/21 06:32:31;;;;;;;5.27;3.43;;;10.10;99.90;;;;;;5029038;28;20639;-90
2023/03/21 06:34:57;;;;;;;7.47;3.43;;;10.10;99.90;;;;;;5028283;28;20222;-89
2023/03/21 06:37:25;;;;;;;3.00;2.77;;;10.10;99.90;;;;;;5018702;28;20213;-89
2023/03/21 06:39:51;;;;;;;5.70;2.83;;;10.00;99.90;;;;;;5033800;28;20225;-92
2023/03/21 06:42:17;;;;;;;2.27;2.07;;;10.10;99.90;;;;;;5034850;28;20583;-88
2023/03/21 06:44:43;;;;;;;5.73;3.43;;;10.10;99.90;;;;;;5034010;28;20229;-89
2023/03/21 06:47:08;;;;;;;2.63;2.27;;;10.10;99.90;;;;;;5036042;28;20788;-88
2023/03/21 06:49:35;;;;;;;2.80;2.10;;;10.10;99.90;;;;;;5037186;28;20234;-86
2023/03/21 06:52:00;;;;;;;2.70;2.50;;;10.10;99.90;;;;;;5032666;28;20253;-86
2023/03/21 06:54:26;;;;;;;6.97;4.00;;;10.10;99.90;;;;;;5017827;28;20238;-86
2023/03/21 06:56:53;;;;;;;10.00;5.87;;;10.10;99.90;;;;;;5026413;28;20214;-88
2023/03/21 06:59:19;;;;;;;5.43;4.20;;;10.10;99.90;;;;;;5026285;28;20590;-88
2023/03/21 07:01:45;;;;;;;3.53;2.67;;;10.20;99.90;;;;;;5025887;28;20226;-86
2023/03/21 07:04:11;;;;;;;9.80;8.50;;;10.20;99.90;;;;;;5032902;28;20658;-90
2023/03/21 07:06:37;;;;;;;8.50;4.53;;;10.20;99.90;;;;;;5034126;28;20218;-91
2023/03/21 07:09:04;;;;;;;5.07;4.07;;;10.30;99.90;;;;;;5026370;28;20253;-87
2023/03/21 07:11:31;;;;;;;5.10;3.30;;;10.30;99.90;;;;;;5035328;28;20205;-88
2023/03/21 07:13:57;;;;;;;6.43;4.30;;;10.20;99.90;;;;;;5025303;28;20218;-88
2023/03/21 07:16:23;;;;;;;4.60;3.93;;;10.30;99.90;;;;;;5030711;28;20668;-87
2023/03/21 07:18:49;;;;;;;4.03;2.90;;;10.30;99.90;;;;;;5036321;28;20261;-88
2023/03/21 07:21:16;;;;;;;5.63;4.47;;;10.30;99.90;;;;;;5031542;28;20442;-88
2023/03/21 07:23:42;;;;;;;3.60;2.73;;;10.30;99.90;;;;;;5035748;28;20248;-90
2023/03/21 07:26:08;;;;;;;3.23;2.40;;;10.30;99.90;;;;;;5034778;28;20186;-89
2023/03/21 07:28:34;;;;;;;5.10;4.07;;;10.30;99.90;;;;;;5034525;28;20245;-89
2023/03/21 07:31:03;;;;;;;5.13;4.20;;;10.30;99.90;;;;;;5037712;28;20222;-89
2023/03/21 07:33:30;;;;;;;6.30;4.20;;;10.40;99.90;;;;;;5034389;28;20206;-86
2023/03/21 07:35:57;;;;;;;6.97;4.10;;;10.40;99.90;;;;;;5036680;28;20218;-89
2023/03/21 07:38:23;;;;;;;7.30;3.43;;;10.40;99.90;;;;;;5034568;28;20608;-87
2023/03/21 07:40:49;;;;;;;6.10;3.60;;;10.40;99.90;;;;;;5036098;28;20442;-89
2023/03/21 07:43:16;;;;;;;4.60;3.47;;;10.50;99.90;;;;;;5053011;28;20218;-86
2023/03/21 07:45:43;;;;;;;4.40;3.53;;;10.40;99.90;;;;;;5043228;28;20214;-87
2023/03/21 07:48:11;;;;;;;6.50;5.07;;;10.40;99.90;;;;;;5035409;28;20214;-87
2023/03/21 07:50:38;;;;;;;7.70;3.70;;;10.40;99.90;;;;;;5033572;28;20202;-88
2023/03/21 07:53:04;;;;;;;5.37;4.47;;;10.50;99.90;;;;;;5033315;28;20194;-87
2023/03/21 07:55:33;;;;;;;7.80;4.73;;;10.50;99.90;;;;;;5039920;28;20217;-86
2023/03/21 07:58:00;;;;;;;2.70;2.43;;;10.50;99.90;;;;;;5032407;28;20275;-87
2023/03/21 08:00:26;;;;;;;4.57;3.87;;;10.50;99.90;;;;;;5033864;28;20237;-84
2023/03/21 08:02:53;;;;;;;3.30;2.87;;;10.60;99.90;;;;;;5033716;28;20573;-85
2023/03/21 08:05:21;;;;;;;3.07;2.77;;;10.50;99.90;;;;;;5033706;28;20196;-84
2023/03/21 08:07:46;;;;;;;5.60;5.00;;;10.50;99.90;;;;;;5015307;28;20228;-85
2023/03/21 08:10:12;;;;;;;9.40;5.03;;;10.50;99.90;;;;;;5032816;28;20233;-84
2023/03/21 08:12:38;;;;;;;4.67;3.17;;;10.50;99.90;;;;;;5032466;28;20698;-86
2023/03/21 08:15:05;;;;;;;6.17;3.60;;;10.50;99.90;;;;;;5032881;28;20282;-86
2023/03/21 08:17:30;;;;;;;3.80;3.40;;;10.60;99.90;;;;;;5032576;28;20190;-83
2023/03/21 08:19:56;;;;;;;3.00;2.53;;;10.60;99.90;;;;;;5033661;28;21151;-84
2023/03/21 08:22:22;;;;;;;3.47;3.03;;;10.60;99.90;;;;;;5022948;28;20578;-84
2023/03/21 08:24:47;;;;;;;7.37;5.47;;;10.60;99.90;;;;;;5035173;28;21185;-85
2023/03/21 08:27:14;;;;;;;4.97;4.57;;;10.70;99.90;;;;;;5034919;28;20669;-84
2023/03/21 08:29:41;;;;;;;14.23;5.93;;;10.60;99.90;;;;;;5016562;28;20232;-84
2023/03/21 08:32:07;;;;;;;6.27;5.67;;;10.80;99.90;;;;;;5015059;28;20194;-84
2023/03/21 08:34:33;;;;;;;8.50;6.30;;;10.80;99.90;;;;;;5032820;28;20226;-83
2023/03/21 08:37:00;;;;;;;8.60;5.67;;;10.70;99.90;;;;;;5034408;28;20249;-84
2023/03/21 08:39:26;;;;;;;5.67;3.77;;;10.80;99.90;;;;;;5034303;28;20225;-86
2023/03/21 08:41:52;;;;;;;4.97;4.57;;;10.80;99.90;;;;;;5000193;28;20244;-85
2023/03/21 08:44:18;;;;;;;4.97;3.77;;;10.80;99.90;;;;;;5017492;28;20231;-86
2023/03/21 08:46:44;;;;;;;6.37;5.60;;;10.90;99.90;;;;;;5024980;28;20229;-86
2023/03/21 08:49:11;;;;;;;12.17;6.33;;;10.90;99.90;;;;;;5025575;28;20603;-85
2023/03/21 08:51:37;;;;;;;5.20;4.47;;;10.90;99.90;;;;;;5036483;28;20221;-85
2023/03/21 08:54:03;;;;;;;5.87;3.93;;;10.90;99.90;;;;;;5031600;28;20659;-85
2023/03/21 08:56:28;;;;;;;5.20;4.50;;;11.00;99.90;;;;;;5026512;28;20187;-87
2023/03/21 08:58:54;;;;;;;7.47;5.60;;;10.90;99.90;;;;;;5035779;28;20686;-86
2023/03/21 09:01:20;;;;;;;7.00;5.10;;;11.00;99.90;;;;;;5033232;28;20218;-86
2023/03/21 09:03:45;;;;;;;3.93;3.17;;;10.90;99.90;;;;;;5035827;28;20447;-87
2023/03/21 09:06:13;;;;;;;8.90;5.70;;;10.90;99.90;;;;;;5016564;28;20225;-86
2023/03/21 09:08:40;;;;;;;6.80;5.50;;;10.90;99.90;;;;;;5031142;28;20329;-86
2023/03/21 09:11:07;;;;;;;7.97;6.70;;;10.90;99.90;;;;;;5033333;28;21091;-86
2023/03/21 09:13:33;;;;;;;10.97;7.47;;;10.90;99.90;;;;;;5018554;28;20206;-88
2023/03/21 09:16:00;;;;;;;11.03;7.03;;;10.80;99.90;;;;;;5027222;28;20351;-84
2023/03/21 09:18:37;;;;;;;8.53;7.10;;;10.70;99.90;;;;;;5035903;28;20223;-85
2023/03/21 09:21:12;;;;;;;10.17;8.70;;;10.70;99.90;;;;;;5036207;28;20226;-88
2023/03/21 09:23:39;;;;;;;12.80;6.30;;;10.80;99.90;;;;;;5036686;28;20186;-85
2023/03/21 09:26:06;;;;;;;9.57;7.87;;;10.80;99.90;;;;;;5035771;28;20233;-85
2023/03/21 09:28:33;;;;;;;10.73;7.10;;;10.70;99.90;;;;;;5027919;28;20497;-85
2023/03/21 09:31:01;;;;;;;8.03;5.10;;;10.80;99.90;;;;;;5036202;28;20227;-84
2023/03/21 09:33:28;;;;;;;11.30;5.73;;;10.70;99.90;;;;;;5020874;28;20279;-84
2023/03/21 09:35:54;;;;;;;8.60;5.60;;;10.70;99.90;;;;;;5023014;28;20244;-85
2023/03/21 09:38:21;;;;;;;6.57;4.63;;;10.70;99.90;;;;;;5020989;28;20262;-83
2023/03/21 09:41:17;;;;;;;8.17;5.27;;;10.70;99.90;;;;;;5038115;28;20656;-85
2023/03/21 09:43:58;;;;;;;6.97;5.13;;;10.60;99.90;;;;;;5010853;28;20245;-85
2023/03/21 09:46:33;;;;;;;7.87;4.00;;;10.70;99.90;;;;;;5037252;28;20241;-85
2023/03/21 09:49:31;;;;;;;9.10;5.97;;;10.70;99.90;;;;;;5038657;28;20711;-84
2023/03/21 09:52:08;;;;;;;10.27;4.53;;;10.70;99.90;;;;;;5051001;28;20261;-83
2023/03/21 09:54:42;;;;;;;14.80;9.50;;;10.70;99.90;;;;;;5034816;28;20249;-85
2023/03/21 09:57:32;;;;;;;6.67;5.90;;;10.70;99.90;;;;;;5028566;28;20578;-87
2023/03/21 10:00:15;;;;;;;8.20;6.30;;;10.80;99.90;;;;;;5035781;28;20299;-88
2023/03/21 10:02:46;;;;;;;13.57;8.27;;;10.90;99.90;;;;;;5037223;28;20190;-88
2023/03/21 10:05:29;;;;;;;8.60;6.50;;;11.10;99.90;;;;;;5041521;28;20189;-88
2023/03/21 10:08:03;;;;;;;7.40;5.23;;;11.20;99.90;;;;;;5039630;28;20222;-87
2023/03/21 10:10:37;;;;;;;7.60;5.23;;;11.30;99.90;;;;;;5038609;28;20225;-86
2023/03/21 10:13:09;;;;;;;10.30;6.83;;;11.30;99.90;;;;;;5039223;28;20302;-86
2023/03/21 10:15:35;;;;;;;3.77;3.43;;;11.50;99.90;;;;;;5039079;28;20316;-87
2023/03/21 10:18:05;;;;;;;9.77;7.07;;;11.60;99.90;;;;;;5053266;28;20344;-86
2023/03/21 10:20:33;;;;;;;8.03;4.30;;;11.70;99.90;;;;;;5039430;28;20727;-87
2023/03/21 10:23:02;;;;;;;8.57;6.17;;;11.80;99.90;;;;;;5038957;28;20264;-86
2023/03/21 10:25:33;;;;;;;7.63;5.77;;;12.00;99.90;;;;;;5037356;28;20222;-89
2023/03/21 10:28:01;;;;;;;10.03;5.40;;;12.00;99.90;;;;;;5043634;28;20248;-85
2023/03/21 10:30:59;;;;;;;8.33;5.37;;;12.00;99.90;;;;;;5035034;28;20278;-85
2023/03/21 10:33:34;;;;;;;11.07;3.53;;;12.00;99.90;;;;;;5020003;28;20226;-85
2023/03/21 10:36:24;;;;;;;8.53;4.10;;;12.00;99.90;;;;;;5037438;28;20572;-86
2023/03/21 10:38:57;;;;;;;2.87;2.67;;;12.10;99.90;;;;;;5037484;28;20190;-84
2023/03/21 10:41:24;;;;;;;6.23;5.27;;;12.10;99.90;;;;;;5038038;28;20205;-86
2023/03/21 10:44:18;;;;;;;8.57;3.33;;;12.20;99.90;;;;;;5035568;28;20343;-85
2023/03/21 10:47:01;;;;;;;7.13;3.43;;;12.40;99.90;;;;;;5037317;28;20223;-86
2023/03/21 10:49:30;;;;;;;6.73;4.30;;;12.50;99.90;;;;;;5036635;28;20613;-85
2023/03/21 10:52:04;;;;;;;2.40;2.20;;;12.60;99.90;;;;;;5036868;28;20308;-85
2023/03/21 10:54:32;;;;;;;4.57;2.43;;;12.60;99.90;;;;;;5050128;28;20221;-85
2023/03/21 10:57:08;;;;;;;4.20;3.13;;;12.50;99.90;;;;;;5038100;28;20533;-86
2023/03/21 10:59:52;;;;;;;2.50;1.93;;;12.50;99.90;;;;;;5040121;28;20591;-86
2023/03/21 11:02:29;;;;;;;4.87;2.60;;;12.60;99.90;;;;;;5023776;28;20254;-86
2023/03/21 11:04:57;;;;;;;3.83;3.07;;;12.50;99.90;;;;;;5037232;28;20222;-88
2023/03/21 11:07:29;;;;;;;8.83;2.53;;;12.50;99.90;;;;;;5037416;28;20692;-85
2023/03/21 11:09:59;;;;;;;3.03;2.67;;;12.60;99.90;;;;;;5035035;28;20304;-85
2023/03/21 11:12:38;;;;;;;4.37;2.60;;;12.70;99.90;;;;;;5037173;28;20667;-86
2023/03/21 11:15:47;;;;;;;1.87;1.73;;;12.80;99.90;;;;;;5044429;28;20284;-87
2023/03/21 11:18:25;;;;;;;2.47;2.23;;;12.90;99.90;;;;;;5037292;28;20290;-85
2023/03/21 11:21:02;;;;;;;1.90;1.60;;;13.10;99.90;;;;;;5032711;28;20241;-85
2023/03/21 11:23:30;;;;;;;3.93;2.77;;;13.10;99.90;;;;;;5046086;28;20186;-88
2023/03/21 11:25:59;;;;;;;8.40;3.60;;;13.20;99.90;;;;;;5045114;28;20737;-85
2023/03/21 11:28:32;;;;;;;8.70;6.50;;;13.20;99.90;;;;;;5018459;28;20367;-87
2023/03/21 11:31:01;;;;;;;4.77;3.63;;;13.10;99.90;;;;;;5037305;28;20348;-87
2023/03/21 11:33:39;;;;;;;3.23;2.93;;;12.90;99.90;;;;;;5038989;28;20221;-87
2023/03/21 11:36:17;;;;;;;6.37;2.57;;;13.00;99.90;;;;;;5035727;28;20217;-85
2023/03/21 11:38:46;;;;;;;4.30;3.50;;;13.00;99.90;;;;;;5035066;28;20666;-84
2023/03/21 11:41:23;;;;;;;5.67;2.40;;;12.90;99.90;;;;;;5024402;28;20549;-85
2023/03/21 11:43:53;;;;;;;3.87;2.13;;;13.00;99.90;;;;;;5035270;28;20247;-87
2023/03/21 11:46:25;;;;;;;5.47;2.77;;;12.90;99.90;;;;;;5031785;28;20222;-84
2023/03/21 11:48:51;;;;;;;7.57;3.37;;;12.70;99.90;;;;;;5035302;28;20230;-85
2023/03/21 11:51:17;;;;;;;5.60;3.03;;;12.50;99.90;;;;;;5042107;28;20241;-86
2023/03/21 11:53:49;;;;;;;3.73;2.93;;;12.50;99.90;;;;;;5033234;28;20640;-86
2023/03/21 11:56:33;;;;;;;4.03;2.50;;;12.40;99.90;;;;;;5035126;28;20186;-87
2023/03/21 11:59:27;;;;;;;6.53;3.67;;;12.40;99.90;;;;;;5035193;28;20287;-86
2023/03/21 12:01:53;;;;;;;5.40;4.23;;;12.40;99.90;;;;;;5035769;28;20222;-85
2023/03/21 12:04:40;;;;;;;3.47;3.23;;;12.30;99.90;;;;;;5046739;28;20741;-85
2023/03/21 12:07:11;;;;;;;7.70;4.13;;;12.30;99.90;;;;;;5036027;28;20222;-85
2023/03/21 12:10:24;;;;;;;7.40;4.83;;;12.30;99.90;;;;;;5030559;28;20260;-84
2023/03/21 12:12:59;;;;;;;9.87;5.40;;;12.20;99.90;;;;;;4972019;28;20303;-84
2023/03/21 12:16:07;;;;;;;10.70;5.27;;;12.30;99.90;;;;;;5035085;28;20296;-86
2023/03/21 12:18:49;;;;;;;6.73;4.20;;;12.50;99.90;;;;;;5033322;28;20225;-85
2023/03/21 12:21:38;;;;;;;11.00;4.73;;;12.80;99.90;;;;;;5036103;28;20209;-83
2023/03/21 12:24:30;;;;;;;4.77;3.63;;;12.80;99.90;;;;;;5032509;28;20217;-85
2023/03/21 12:27:31;;;;;;;5.77;4.63;;;13.00;99.90;;;;;;5034959;28;20224;-85
2023/03/21 12:30:12;;;;;;;3.40;2.77;;;13.00;99.90;;;;;;5041700;28;20298;-84
2023/03/21 12:33:02;;;;;;;4.63;3.40;;;13.10;99.90;;;;;;5033534;28;20182;-84
2023/03/21 12:35:46;;;;;;;4.97;4.27;;;13.20;99.90;;;;;;5035480;28;20186;-84
2023/03/21 12:38:23;;;;;;;4.10;3.37;;;13.10;99.90;;;;;;5034810;28;20432;-85
2023/03/21 12:40:48;;;;;;;8.40;3.47;;;13.30;99.90;;;;;;5034717;28;20226;-86
2023/03/21 12:43:23;;;;;;;5.73;4.03;;;13.30;99.90;;;;;;5034991;28;20218;-84
2023/03/21 12:45:54;;;;;;;6.27;4.30;;;13.30;99.90;;;;;;5034496;28;20233;-85
2023/03/21 12:48:51;;;;;;;5.27;4.53;;;13.20;99.90;;;;;;5034576;28;20213;-85
2023/03/21 12:51:25;;;;;;;5.97;4.83;;;13.20;99.90;;;;;;5036729;28;20238;-85
2023/03/21 12:54:14;;;;;;;10.50;4.70;;;13.30;99.90;;;;;;5039524;28;20191;-84
2023/03/21 12:56:49;;;;;;;6.63;4.30;;;13.10;99.90;;;;;;5019277;28;20194;-85
2023/03/21 12:59:31;;;;;;;6.07;3.63;;;13.20;99.90;;;;;;5057520;28;20186;-87
2023/03/21 13:02:03;;;;;;;8.13;4.17;;;13.10;99.90;;;;;;5041648;28;20206;-84
2023/03/21 13:04:48;;;;;;;7.27;4.90;;;13.00;99.90;;;;;;5038723;28;20623;-84
2023/03/21 13:07:18;;;;;;;20.97;6.00;;;12.90;99.90;;;;;;5038360;28;20252;-84
2023/03/21 13:09:45;;;;;;;5.37;4.87;;;13.00;99.90;;;;;;5045610;28;20633;-84